sensor_id;sensor_type;location;lat;lon;timestamp;temperature;humidity
7658;DHT22;8462;53.156;8.220;2024-02-26T00:01:06;6.70;99.90
7658;DHT22;8462;53.156;8.220;2024-02-26T00:03:35;6.80;99.90
7658;DHT22;8462;53.156;8.220;2024-02-26T00:06:02;6.80;99.90
7658;DHT22;8462;53.156;8.220;2024-02-26T00:08:32;6.70;99.90
7658;DHT22;8462;53.156;8.220;2024-02-26T00:11:01;6.70;99.90
7658;DHT22;8462;53.156;8.220;2024-02-26T00:13:32;6.70;99.90
7658;DHT22;8462;53.156;8.220;2024-02-26T00:15:59;6.70;99.90
7658;DHT22;8462;53.156;8.220;2024-02-26T00:18:27;6.70;99.90
7658;DHT22;8462;53.156;8.220;2024-02-26T00:20:58;6.60;99.90
7658;DHT22;8462;53.156;8.220;2024-02-26T00:23:25;6.70;99.90
7658;DHT22;8462;53.156;8.220;2024-02-26T00:25:58;6.70;99.90
7658;DHT22;8462;53.156;8.220;2024-02-26T00:28:26;6.70;99.90
7658;DHT22;8462;53.156;8.220;2024-02-26T00:30:58;6.60;99.90
7658;DHT22;8462;53.156;8.220;2024-02-26T00:33:27;6.60;99.90
7658;DHT22;8462;53.156;8.220;2024-02-26T00:35:55;6.60;99.90
7658;DHT22;8462;53.156;8.220;2024-02-26T00:38:23;6.60;99.90
7658;DHT22;8462;53.156;8.220;2024-02-26T00:40:51;6.50;99.90
7658;DHT22;8462;53.156;8.220;2024-02-26T00:43:24;6.50;99.90
7658;DHT22;8462;53.156;8.220;2024-02-26T00:45:51;6.50;99.90
7658;DHT22;8462;53.156;8.220;2024-02-26T00:48:23;6.50;99.90
7658;DHT22;8462;53.156;8.220;2024-02-26T00:50:54;6.40;99.90
7658;DHT22;8462;53.156;8.220;2024-02-26T00:53:22;6.40;99.90
7658;DHT22;8462;53.156;8.220;2024-02-26T00:55:51;6.40;99.90
7658;DHT22;8462;53.156;8.220;2024-02-26T00:58:20;6.30;99.90
7658;DHT22;8462;53.156;8.220;2024-02-26T01:00:48;6.30;99.90
7658;DHT22;8462;53.156;8.220;2024-02-26T01:03:15;6.20;99.90
7658;DHT22;8462;53.156;8.220;2024-02-26T01:05:45;6.20;99.90
7658;DHT22;8462;53.156;8.220;2024-02-26T01:08:14;6.20;99.90
7658;DHT22;8462;53.156;8.220;2024-02-26T01:10:42;6.30;99.90
7658;DHT22;8462;53.156;8.220;2024-02-26T01:13:10;6.20;99.90
7658;DHT22;8462;53.156;8.220;2024-02-26T01:15:38;6.20;99.90
7658;DHT22;8462;53.156;8.220;2024-02-26T01:18:06;6.30;99.90
7658;DHT22;8462;53.156;8.220;2024-02-26T01:20:34;6.20;99.90
7658;DHT22;8462;53.156;8.220;2024-02-26T01:23:03;6.20;99.90
7658;DHT22;8462;53.156;8.220;2024-02-26T01:25:32;6.10;99.90
7658;DHT22;8462;53.156;8.220;2024-02-26T01:27:59;6.10;99.90
7658;DHT22;8462;53.156;8.220;2024-02-26T01:30:27;6.10;99.90
7658;DHT22;8462;53.156;8.220;2024-02-26T01:32:55;6.00;99.90
7658;DHT22;8462;53.156;8.220;2024-02-26T01:35:24;6.00;99.90
7658;DHT22;8462;53.156;8.220;2024-02-26T01:37:52;5.90;99.90
7658;DHT22;8462;53.156;8.220;2024-02-26T01:40:21;5.90;99.90
7658;DHT22;8462;53.156;8.220;2024-02-26T01:42:49;5.90;99.90
7658;DHT22;8462;53.156;8.220;2024-02-26T01:45:20;5.80;99.90
7658;DHT22;8462;53.156;8.220;2024-02-26T01:47:52;5.80;99.90
7658;DHT22;8462;53.156;8.220;2024-02-26T01:50:21;5.80;99.90
7658;DHT22;8462;53.156;8.220;2024-02-26T01:52:50;5.80;99.90
7658;DHT22;8462;53.156;8.220;2024-02-26T01:55:23;5.80;99.90
7658;DHT22;8462;53.156;8.220;2024-02-26T01:57:52;5.80;99.90
7658;DHT22;8462;53.156;8.220;2024-02-26T02:00:21;5.80;99.90
7658;DHT22;8462;53.156;8.220;2024-02-26T02:02:49;5.80;99.90
7658;DHT22;8462;53.156;8.220;2024-02-26T02:05:22;5.80;99.90
7658;DHT22;8462;53.156;8.220;2024-02-26T02:07:50;5.80;99.90
7658;DHT22;8462;53.156;8.220;2024-02-26T02:10:19;5.70;99.90
7658;DHT22;8462;53.156;8.220;2024-02-26T02:12:50;5.70;99.90
7658;DHT22;8462;53.156;8.220;2024-02-26T02:15:18;5.70;99.90
7658;DHT22;8462;53.156;8.220;2024-02-26T02:17:46;5.80;99.90
7658;DHT22;8462;53.156;8.220;2024-02-26T02:20:16;5.80;99.90
7658;DHT22;8462;53.156;8.220;2024-02-26T02:22:46;5.80;99.90
7658;DHT22;8462;53.156;8.220;2024-02-26T02:25:13;5.80;99.90
7658;DHT22;8462;53.156;8.220;2024-02-26T02:27:43;5.80;99.90
7658;DHT22;8462;53.156;8.220;2024-02-26T02:30:36;5.80;99.90
7658;DHT22;8462;53.156;8.220;2024-02-26T02:33:05;5.80;99.90
7658;DHT22;8462;53.156;8.220;2024-02-26T02:35:34;5.80;99.90
7658;DHT22;8462;53.156;8.220;2024-02-26T02:38:03;5.80;99.90
7658;DHT22;8462;53.156;8.220;2024-02-26T02:40:34;5.80;99.90
7658;DHT22;8462;53.156;8.220;2024-02-26T02:43:02;5.80;99.90
7658;DHT22;8462;53.156;8.220;2024-02-26T02:45:31;5.80;99.90
7658;DHT22;8462;53.156;8.220;2024-02-26T02:47:59;5.80;99.90
7658;DHT22;8462;53.156;8.220;2024-02-26T02:50:29;5.80;99.90
7658;DHT22;8462;53.156;8.220;2024-02-26T02:52:56;5.90;99.90
7658;DHT22;8462;53.156;8.220;2024-02-26T02:55:25;5.90;99.90
7658;DHT22;8462;53.156;8.220;2024-02-26T02:57:52;5.90;99.90
7658;DHT22;8462;53.156;8.220;2024-02-26T03:00:20;5.90;99.90
7658;DHT22;8462;53.156;8.220;2024-02-26T03:02:48;5.90;99.90
7658;DHT22;8462;53.156;8.220;2024-02-26T03:05:19;5.90;99.90
7658;DHT22;8462;53.156;8.220;2024-02-26T03:07:53;5.90;99.90
7658;DHT22;8462;53.156;8.220;2024-02-26T03:10:21;5.90;99.90
7658;DHT22;8462;53.156;8.220;2024-02-26T03:12:55;5.90;99.90
7658;DHT22;8462;53.156;8.220;2024-02-26T03:15:22;5.90;99.90
7658;DHT22;8462;53.156;8.220;2024-02-26T03:17:51;5.90;99.90
7658;DHT22;8462;53.156;8.220;2024-02-26T03:20:19;5.80;99.90
7658;DHT22;8462;53.156;8.220;2024-02-26T03:22:46;5.80;99.90
7658;DHT22;8462;53.156;8.220;2024-02-26T03:25:31;5.80;99.90
7658;DHT22;8462;53.156;8.220;2024-02-26T03:28:01;5.80;99.90
7658;DHT22;8462;53.156;8.220;2024-02-26T03:30:35;5.80;99.90
7658;DHT22;8462;53.156;8.220;2024-02-26T03:33:03;5.80;99.90
7658;DHT22;8462;53.156;8.220;2024-02-26T03:35:32;5.80;99.90
7658;DHT22;8462;53.156;8.220;2024-02-26T03:38:01;5.70;99.90
7658;DHT22;8462;53.156;8.220;2024-02-26T03:40:28;5.70;99.90
7658;DHT22;8462;53.156;8.220;2024-02-26T03:42:55;5.60;99.90
7658;DHT22;8462;53.156;8.220;2024-02-26T03:45:27;5.60;99.90
7658;DHT22;8462;53.156;8.220;2024-02-26T03:47:55;5.60;99.90
7658;DHT22;8462;53.156;8.220;2024-02-26T03:50:24;5.60;99.90
7658;DHT22;8462;53.156;8.220;2024-02-26T03:52:52;5.60;99.90
7658;DHT22;8462;53.156;8.220;2024-02-26T03:55:22;5.60;99.90
7658;DHT22;8462;53.156;8.220;2024-02-26T03:57:51;5.60;99.90
7658;DHT22;8462;53.156;8.220;2024-02-26T04:00:21;5.60;99.90
7658;DHT22;8462;53.156;8.220;2024-02-26T04:02:52;5.60;99.90
7658;DHT22;8462;53.156;8.220;2024-02-26T04:05:20;5.50;99.90
7658;DHT22;8462;53.156;8.220;2024-02-26T04:07:50;5.50;99.90
7658;DHT22;8462;53.156;8.220;2024-02-26T04:10:20;5.50;99.90
7658;DHT22;8462;53.156;8.220;2024-02-26T04:12:52;5.50;99.90
7658;DHT22;8462;53.156;8.220;2024-02-26T04:15:20;5.50;99.90
7658;DHT22;8462;53.156;8.220;2024-02-26T04:17:48;5.50;99.90
7658;DHT22;8462;53.156;8.220;2024-02-26T04:20:18;5.50;99.90
7658;DHT22;8462;53.156;8.220;2024-02-26T04:22:47;5.50;99.90
7658;DHT22;8462;53.156;8.220;2024-02-26T04:25:15;5.50;99.90
7658;DHT22;8462;53.156;8.220;2024-02-26T04:27:45;5.50;99.90
7658;DHT22;8462;53.156;8.220;2024-02-26T04:30:12;5.50;99.90
7658;DHT22;8462;53.156;8.220;2024-02-26T04:32:42;5.60;99.90
7658;DHT22;8462;53.156;8.220;2024-02-26T04:35:10;5.60;99.90
7658;DHT22;8462;53.156;8.220;2024-02-26T04:37:40;5.50;99.90
7658;DHT22;8462;53.156;8.220;2024-02-26T04:40:09;5.60;99.90
7658;DHT22;8462;53.156;8.220;2024-02-26T04:42:38;5.50;99.90
7658;DHT22;8462;53.156;8.220;2024-02-26T04:45:07;5.50;99.90
7658;DHT22;8462;53.156;8.220;2024-02-26T04:47:35;5.50;99.90
7658;DHT22;8462;53.156;8.220;2024-02-26T04:50:05;5.50;99.90
7658;DHT22;8462;53.156;8.220;2024-02-26T04:52:33;5.50;99.90
7658;DHT22;8462;53.156;8.220;2024-02-26T04:55:04;5.50;99.90
7658;DHT22;8462;53.156;8.220;2024-02-26T04:57:37;5.50;99.90
7658;DHT22;8462;53.156;8.220;2024-02-26T05:00:05;5.50;99.90
7658;DHT22;8462;53.156;8.220;2024-02-26T05:02:32;5.50;99.90
7658;DHT22;8462;53.156;8.220;2024-02-26T05:05:06;5.50;99.90
7658;DHT22;8462;53.156;8.220;2024-02-26T05:07:41;5.50;99.90
7658;DHT22;8462;53.156;8.220;2024-02-26T05:10:11;5.50;99.90
7658;DHT22;8462;53.156;8.220;2024-02-26T05:12:50;5.50;99.90
7658;DHT22;8462;53.156;8.220;2024-02-26T05:15:20;5.40;99.90
7658;DHT22;8462;53.156;8.220;2024-02-26T05:17:49;5.30;99.90
7658;DHT22;8462;53.156;8.220;2024-02-26T05:20:17;5.30;99.90
7658;DHT22;8462;53.156;8.220;2024-02-26T05:22:44;5.20;99.90
7658;DHT22;8462;53.156;8.220;2024-02-26T05:25:14;5.10;99.90
7658;DHT22;8462;53.156;8.220;2024-02-26T05:27:44;5.20;99.90
7658;DHT22;8462;53.156;8.220;2024-02-26T05:30:17;5.10;99.90
7658;DHT22;8462;53.156;8.220;2024-02-26T05:32:46;5.10;99.90
7658;DHT22;8462;53.156;8.220;2024-02-26T05:35:13;5.10;99.90
7658;DHT22;8462;53.156;8.220;2024-02-26T05:37:41;5.10;99.90
7658;DHT22;8462;53.156;8.220;2024-02-26T05:40:09;5.10;99.90
7658;DHT22;8462;53.156;8.220;2024-02-26T05:42:39;5.10;99.90
7658;DHT22;8462;53.156;8.220;2024-02-26T05:45:08;5.10;99.90
7658;DHT22;8462;53.156;8.220;2024-02-26T05:47:36;5.10;99.90
7658;DHT22;8462;53.156;8.220;2024-02-26T05:50:08;5.00;99.90
7658;DHT22;8462;53.156;8.220;2024-02-26T05:52:42;5.00;99.90
7658;DHT22;8462;53.156;8.220;2024-02-26T05:55:10;5.10;99.90
7658;DHT22;8462;53.156;8.220;2024-02-26T05:57:42;5.00;99.90
7658;DHT22;8462;53.156;8.220;2024-02-26T06:00:11;5.00;99.90
7658;DHT22;8462;53.156;8.220;2024-02-26T06:02:38;5.00;99.90
7658;DHT22;8462;53.156;8.220;2024-02-26T06:05:07;5.00;99.90
7658;DHT22;8462;53.156;8.220;2024-02-26T06:07:35;5.00;99.90
7658;DHT22;8462;53.156;8.220;2024-02-26T06:10:05;5.10;99.90
7658;DHT22;8462;53.156;8.220;2024-02-26T06:12:36;5.10;99.90
7658;DHT22;8462;53.156;8.220;2024-02-26T06:15:05;5.10;99.90
7658;DHT22;8462;53.156;8.220;2024-02-26T06:17:32;5.10;99.90
7658;DHT22;8462;53.156;8.220;2024-02-26T06:20:03;5.10;99.90
7658;DHT22;8462;53.156;8.220;2024-02-26T06:22:33;5.10;99.90
7658;DHT22;8462;53.156;8.220;2024-02-26T06:25:01;5.10;99.90
7658;DHT22;8462;53.156;8.220;2024-02-26T06:27:29;5.10;99.90
7658;DHT22;8462;53.156;8.220;2024-02-26T06:29:57;5.20;99.90
7658;DHT22;8462;53.156;8.220;2024-02-26T06:32:27;5.20;99.90
7658;DHT22;8462;53.156;8.220;2024-02-26T06:34:56;5.20;99.90
7658;DHT22;8462;53.156;8.220;2024-02-26T06:37:23;5.30;99.90
7658;DHT22;8462;53.156;8.220;2024-02-26T06:39:53;5.30;99.90
7658;DHT22;8462;53.156;8.220;2024-02-26T06:42:21;5.30;99.90
7658;DHT22;8462;53.156;8.220;2024-02-26T06:44:50;5.30;99.90
7658;DHT22;8462;53.156;8.220;2024-02-26T06:47:18;5.30;99.90
7658;DHT22;8462;53.156;8.220;2024-02-26T06:49:50;5.30;99.90
7658;DHT22;8462;53.156;8.220;2024-02-26T06:52:19;5.40;99.90
7658;DHT22;8462;53.156;8.220;2024-02-26T06:54:47;5.40;99.90
7658;DHT22;8462;53.156;8.220;2024-02-26T06:57:17;5.40;99.90
7658;DHT22;8462;53.156;8.220;2024-02-26T06:59:50;5.50;99.90
7658;DHT22;8462;53.156;8.220;2024-02-26T07:02:19;5.60;99.90
7658;DHT22;8462;53.156;8.220;2024-02-26T07:04:46;5.60;99.90
7658;DHT22;8462;53.156;8.220;2024-02-26T07:07:15;5.60;99.90
7658;DHT22;8462;53.156;8.220;2024-02-26T07:09:43;5.70;99.90
7658;DHT22;8462;53.156;8.220;2024-02-26T07:12:14;5.70;99.90
7658;DHT22;8462;53.156;8.220;2024-02-26T07:14:44;5.70;99.90
7658;DHT22;8462;53.156;8.220;2024-02-26T07:17:11;5.80;99.90
7658;DHT22;8462;53.156;8.220;2024-02-26T07:19:38;5.80;99.90
7658;DHT22;8462;53.156;8.220;2024-02-26T07:22:08;5.90;99.90
7658;DHT22;8462;53.156;8.220;2024-02-26T07:24:37;6.00;99.90
7658;DHT22;8462;53.156;8.220;2024-02-26T07:27:12;6.00;99.90
7658;DHT22;8462;53.156;8.220;2024-02-26T07:29:40;6.10;99.90
7658;DHT22;8462;53.156;8.220;2024-02-26T07:32:11;6.10;99.90
7658;DHT22;8462;53.156;8.220;2024-02-26T07:34:39;6.10;99.90
7658;DHT22;8462;53.156;8.220;2024-02-26T07:37:13;6.10;99.90
7658;DHT22;8462;53.156;8.220;2024-02-26T07:39:42;6.10;99.90
7658;DHT22;8462;53.156;8.220;2024-02-26T07:42:10;6.10;99.90
7658;DHT22;8462;53.156;8.220;2024-02-26T07:44:39;6.10;99.90
7658;DHT22;8462;53.156;8.220;2024-02-26T07:47:11;6.20;99.90
7658;DHT22;8462;53.156;8.220;2024-02-26T07:49:41;6.20;99.90
7658;DHT22;8462;53.156;8.220;2024-02-26T07:52:09;6.10;99.90
7658;DHT22;8462;53.156;8.220;2024-02-26T07:54:37;6.10;99.90
7658;DHT22;8462;53.156;8.220;2024-02-26T07:57:08;6.10;99.90
7658;DHT22;8462;53.156;8.220;2024-02-26T07:59:37;6.10;99.90
7658;DHT22;8462;53.156;8.220;2024-02-26T08:02:08;6.10;99.90
7658;DHT22;8462;53.156;8.220;2024-02-26T08:04:37;6.20;99.90
7658;DHT22;8462;53.156;8.220;2024-02-26T08:07:06;6.20;99.90
7658;DHT22;8462;53.156;8.220;2024-02-26T08:09:34;6.30;99.90
7658;DHT22;8462;53.156;8.220;2024-02-26T08:12:05;6.30;99.90
7658;DHT22;8462;53.156;8.220;2024-02-26T08:14:35;6.30;99.90
7658;DHT22;8462;53.156;8.220;2024-02-26T08:17:10;6.40;99.90
7658;DHT22;8462;53.156;8.220;2024-02-26T08:19:38;6.40;99.90
7658;DHT22;8462;53.156;8.220;2024-02-26T08:22:06;6.50;99.90
7658;DHT22;8462;53.156;8.220;2024-02-26T08:24:35;6.50;99.90
7658;DHT22;8462;53.156;8.220;2024-02-26T08:27:05;6.50;99.90
7658;DHT22;8462;53.156;8.220;2024-02-26T08:29:32;6.60;99.90
7658;DHT22;8462;53.156;8.220;2024-02-26T08:32:02;6.60;99.90
7658;DHT22;8462;53.156;8.220;2024-02-26T08:34:30;6.60;99.90
7658;DHT22;8462;53.156;8.220;2024-02-26T08:36:58;6.60;99.90
7658;DHT22;8462;53.156;8.220;2024-02-26T08:39:28;6.60;99.90
7658;DHT22;8462;53.156;8.220;2024-02-26T08:41:58;6.60;99.90
7658;DHT22;8462;53.156;8.220;2024-02-26T08:44:25;6.60;99.90
7658;DHT22;8462;53.156;8.220;2024-02-26T08:46:52;6.60;99.90
7658;DHT22;8462;53.156;8.220;2024-02-26T08:49:22;6.60;99.90
7658;DHT22;8462;53.156;8.220;2024-02-26T08:51:51;6.70;99.90
7658;DHT22;8462;53.156;8.220;2024-02-26T08:54:19;6.70;99.90
7658;DHT22;8462;53.156;8.220;2024-02-26T08:56:46;6.70;99.90
7658;DHT22;8462;53.156;8.220;2024-02-26T08:59:15;6.70;99.90
7658;DHT22;8462;53.156;8.220;2024-02-26T09:01:44;6.80;99.90
7658;DHT22;8462;53.156;8.220;2024-02-26T09:04:13;6.80;99.90
7658;DHT22;8462;53.156;8.220;2024-02-26T09:06:42;7.00;99.90
7658;DHT22;8462;53.156;8.220;2024-02-26T09:09:09;7.00;99.90
7658;DHT22;8462;53.156;8.220;2024-02-26T09:11:36;7.10;99.90
7658;DHT22;8462;53.156;8.220;2024-02-26T09:14:04;7.20;99.90
7658;DHT22;8462;53.156;8.220;2024-02-26T09:16:31;7.30;99.90
7658;DHT22;8462;53.156;8.220;2024-02-26T09:18:58;7.30;99.90
7658;DHT22;8462;53.156;8.220;2024-02-26T09:21:25;7.30;99.90
7658;DHT22;8462;53.156;8.220;2024-02-26T09:23:56;7.30;99.90
7658;DHT22;8462;53.156;8.220;2024-02-26T09:26:24;7.40;99.90
7658;DHT22;8462;53.156;8.220;2024-02-26T09:28:52;7.50;99.90
7658;DHT22;8462;53.156;8.220;2024-02-26T09:31:20;7.60;99.90
7658;DHT22;8462;53.156;8.220;2024-02-26T09:33:48;7.70;99.90
7658;DHT22;8462;53.156;8.220;2024-02-26T09:36:17;7.60;99.90
7658;DHT22;8462;53.156;8.220;2024-02-26T09:38:45;7.50;99.90
7658;DHT22;8462;53.156;8.220;2024-02-26T09:41:15;7.60;99.90
7658;DHT22;8462;53.156;8.220;2024-02-26T09:43:44;7.60;99.90
7658;DHT22;8462;53.156;8.220;2024-02-26T09:46:12;7.80;99.90
7658;DHT22;8462;53.156;8.220;2024-02-26T09:48:47;7.90;99.90
7658;DHT22;8462;53.156;8.220;2024-02-26T09:51:16;7.90;99.90
7658;DHT22;8462;53.156;8.220;2024-02-26T09:53:44;7.90;99.90
7658;DHT22;8462;53.156;8.220;2024-02-26T09:56:16;8.00;99.90
7658;DHT22;8462;53.156;8.220;2024-02-26T09:58:43;8.00;99.90
7658;DHT22;8462;53.156;8.220;2024-02-26T10:01:17;8.00;99.90
7658;DHT22;8462;53.156;8.220;2024-02-26T10:03:48;8.10;99.90
7658;DHT22;8462;53.156;8.220;2024-02-26T10:06:21;8.10;99.90
7658;DHT22;8462;53.156;8.220;2024-02-26T10:08:53;8.20;99.90
7658;DHT22;8462;53.156;8.220;2024-02-26T10:11:27;8.40;99.90
7658;DHT22;8462;53.156;8.220;2024-02-26T10:13:54;8.50;99.90
7658;DHT22;8462;53.156;8.220;2024-02-26T10:16:24;8.60;99.90
7658;DHT22;8462;53.156;8.220;2024-02-26T10:18:53;8.70;99.90
7658;DHT22;8462;53.156;8.220;2024-02-26T10:21:22;8.80;99.90
7658;DHT22;8462;53.156;8.220;2024-02-26T10:23:50;8.70;99.90
7658;DHT22;8462;53.156;8.220;2024-02-26T10:26:19;8.70;99.90
7658;DHT22;8462;53.156;8.220;2024-02-26T10:28:50;8.70;99.90
7658;DHT22;8462;53.156;8.220;2024-02-26T10:31:19;8.70;99.90
7658;DHT22;8462;53.156;8.220;2024-02-26T10:33:50;8.70;99.90
7658;DHT22;8462;53.156;8.220;2024-02-26T10:36:26;8.70;99.90
7658;DHT22;8462;53.156;8.220;2024-02-26T10:38:55;8.60;99.90
7658;DHT22;8462;53.156;8.220;2024-02-26T10:41:23;8.50;99.90
7658;DHT22;8462;53.156;8.220;2024-02-26T10:43:55;8.50;99.90
7658;DHT22;8462;53.156;8.220;2024-02-26T10:46:28;8.60;99.90
7658;DHT22;8462;53.156;8.220;2024-02-26T10:48:57;8.70;99.90
7658;DHT22;8462;53.156;8.220;2024-02-26T10:51:26;8.70;99.90
7658;DHT22;8462;53.156;8.220;2024-02-26T10:53:57;8.80;99.90
7658;DHT22;8462;53.156;8.220;2024-02-26T10:56:27;8.90;99.90
7658;DHT22;8462;53.156;8.220;2024-02-26T10:58:58;9.00;99.90
7658;DHT22;8462;53.156;8.220;2024-02-26T11:01:27;9.10;99.90
7658;DHT22;8462;53.156;8.220;2024-02-26T11:03:58;9.10;99.90
7658;DHT22;8462;53.156;8.220;2024-02-26T11:06:27;9.10;99.90
7658;DHT22;8462;53.156;8.220;2024-02-26T11:09:00;9.10;99.90
7658;DHT22;8462;53.156;8.220;2024-02-26T11:11:34;9.10;99.90
7658;DHT22;8462;53.156;8.220;2024-02-26T11:14:03;9.10;99.90
7658;DHT22;8462;53.156;8.220;2024-02-26T11:16:30;9.00;99.90
7658;DHT22;8462;53.156;8.220;2024-02-26T11:19:00;8.90;99.90
7658;DHT22;8462;53.156;8.220;2024-02-26T11:21:30;8.90;99.90
7658;DHT22;8462;53.156;8.220;2024-02-26T11:24:09;8.90;99.90
7658;DHT22;8462;53.156;8.220;2024-02-26T11:26:40;9.00;99.90
7658;DHT22;8462;53.156;8.220;2024-02-26T11:29:15;9.00;99.90
7658;DHT22;8462;53.156;8.220;2024-02-26T11:31:48;9.10;99.90
7658;DHT22;8462;53.156;8.220;2024-02-26T11:34:17;9.20;99.90
7658;DHT22;8462;53.156;8.220;2024-02-26T11:36:46;9.20;99.90
7658;DHT22;8462;53.156;8.220;2024-02-26T11:39:16;9.20;99.90
7658;DHT22;8462;53.156;8.220;2024-02-26T11:41:45;9.10;99.90
7658;DHT22;8462;53.156;8.220;2024-02-26T11:44:30;9.20;99.90
7658;DHT22;8462;53.156;8.220;2024-02-26T11:46:58;9.20;99.90
7658;DHT22;8462;53.156;8.220;2024-02-26T11:49:31;9.30;99.90
7658;DHT22;8462;53.156;8.220;2024-02-26T11:51:58;9.40;99.90
7658;DHT22;8462;53.156;8.220;2024-02-26T11:54:44;9.40;99.90
7658;DHT22;8462;53.156;8.220;2024-02-26T11:57:22;9.50;99.90
7658;DHT22;8462;53.156;8.220;2024-02-26T12:00:11;9.50;99.90
7658;DHT22;8462;53.156;8.220;2024-02-26T12:02:41;9.60;99.90
7658;DHT22;8462;53.156;8.220;2024-02-26T12:05:11;9.70;99.90
7658;DHT22;8462;53.156;8.220;2024-02-26T12:07:42;9.80;99.90
7658;DHT22;8462;53.156;8.220;2024-02-26T12:10:23;9.80;99.90
7658;DHT22;8462;53.156;8.220;2024-02-26T12:13:00;9.90;99.90
7658;DHT22;8462;53.156;8.220;2024-02-26T12:15:36;10.00;99.90
7658;DHT22;8462;53.156;8.220;2024-02-26T12:18:05;10.00;99.90
7658;DHT22;8462;53.156;8.220;2024-02-26T12:20:35;10.00;99.90
7658;DHT22;8462;53.156;8.220;2024-02-26T12:23:04;10.10;99.90
7658;DHT22;8462;53.156;8.220;2024-02-26T12:25:34;10.20;99.90
7658;DHT22;8462;53.156;8.220;2024-02-26T12:28:02;10.30;99.90
7658;DHT22;8462;53.156;8.220;2024-02-26T12:30:36;10.40;99.90
7658;DHT22;8462;53.156;8.220;2024-02-26T12:33:04;10.50;99.90
7658;DHT22;8462;53.156;8.220;2024-02-26T12:35:41;10.70;99.90
7658;DHT22;8462;53.156;8.220;2024-02-26T12:38:10;10.80;99.10
7658;DHT22;8462;53.156;8.220;2024-02-26T12:40:40;10.90;98.90
7658;DHT22;8462;53.156;8.220;2024-02-26T12:43:08;10.90;98.70
7658;DHT22;8462;53.156;8.220;2024-02-26T12:45:40;10.90;97.90
7658;DHT22;8462;53.156;8.220;2024-02-26T12:48:12;10.80;98.20
7658;DHT22;8462;53.156;8.220;2024-02-26T12:50:44;10.70;98.60
7658;DHT22;8462;53.156;8.220;2024-02-26T12:53:18;10.70;98.60
7658;DHT22;8462;53.156;8.220;2024-02-26T12:55:46;10.60;98.70
7658;DHT22;8462;53.156;8.220;2024-02-26T12:58:14;10.50;99.90
7658;DHT22;8462;53.156;8.220;2024-02-26T13:00:45;10.40;99.40
7658;DHT22;8462;53.156;8.220;2024-02-26T13:03:15;10.30;99.80
7658;DHT22;8462;53.156;8.220;2024-02-26T13:05:43;10.30;99.80
7658;DHT22;8462;53.156;8.220;2024-02-26T13:08:17;10.20;99.80
7658;DHT22;8462;53.156;8.220;2024-02-26T13:10:45;10.10;99.90
7658;DHT22;8462;53.156;8.220;2024-02-26T13:13:15;10.00;99.90
7658;DHT22;8462;53.156;8.220;2024-02-26T13:15:46;9.90;99.90
7658;DHT22;8462;53.156;8.220;2024-02-26T13:18:14;9.90;99.90
7658;DHT22;8462;53.156;8.220;2024-02-26T13:20:44;9.90;99.90
7658;DHT22;8462;53.156;8.220;2024-02-26T13:23:12;9.90;99.90
7658;DHT22;8462;53.156;8.220;2024-02-26T13:25:41;9.80;99.90
7658;DHT22;8462;53.156;8.220;2024-02-26T13:28:12;9.90;99.90
7658;DHT22;8462;53.156;8.220;2024-02-26T13:30:51;10.00;99.90
7658;DHT22;8462;53.156;8.220;2024-02-26T13:33:21;10.00;99.90
7658;DHT22;8462;53.156;8.220;2024-02-26T13:35:49;9.90;99.90
7658;DHT22;8462;53.156;8.220;2024-02-26T13:38:19;9.90;99.90
7658;DHT22;8462;53.156;8.220;2024-02-26T13:40:53;9.90;99.90
7658;DHT22;8462;53.156;8.220;2024-02-26T13:43:21;9.80;99.90
7658;DHT22;8462;53.156;8.220;2024-02-26T13:45:51;9.80;99.90
7658;DHT22;8462;53.156;8.220;2024-02-26T13:48:20;9.80;99.90
7658;DHT22;8462;53.156;8.220;2024-02-26T13:50:50;9.70;99.90
7658;DHT22;8462;53.156;8.220;2024-02-26T13:53:23;9.70;99.90
7658;DHT22;8462;53.156;8.220;2024-02-26T13:55:51;9.70;99.90
7658;DHT22;8462;53.156;8.220;2024-02-26T13:58:18;9.70;99.90
7658;DHT22;8462;53.156;8.220;2024-02-26T14:00:49;9.70;99.90
7658;DHT22;8462;53.156;8.220;2024-02-26T14:03:18;9.70;99.90
7658;DHT22;8462;53.156;8.220;2024-02-26T14:05:49;9.70;99.90
7658;DHT22;8462;53.156;8.220;2024-02-26T14:08:22;9.80;99.90
7658;DHT22;8462;53.156;8.220;2024-02-26T14:10:51;9.80;99.90
7658;DHT22;8462;53.156;8.220;2024-02-26T14:13:19;9.80;99.90
7658;DHT22;8462;53.156;8.220;2024-02-26T14:15:50;9.80;99.90
7658;DHT22;8462;53.156;8.220;2024-02-26T14:18:18;9.90;99.90
7658;DHT22;8462;53.156;8.220;2024-02-26T14:20:52;9.90;99.90
7658;DHT22;8462;53.156;8.220;2024-02-26T14:23:20;9.80;99.90
7658;DHT22;8462;53.156;8.220;2024-02-26T14:25:48;9.80;99.90
7658;DHT22;8462;53.156;8.220;2024-02-26T14:28:17;9.80;99.90
7658;DHT22;8462;53.156;8.220;2024-02-26T14:30:44;9.70;99.90
7658;DHT22;8462;53.156;8.220;2024-02-26T14:33:12;9.80;99.90
7658;DHT22;8462;53.156;8.220;2024-02-26T14:35:42;9.70;99.90
7658;DHT22;8462;53.156;8.220;2024-02-26T14:38:10;9.70;99.90
7658;DHT22;8462;53.156;8.220;2024-02-26T14:40:39;9.70;99.90
7658;DHT22;8462;53.156;8.220;2024-02-26T14:43:07;9.60;99.90
7658;DHT22;8462;53.156;8.220;2024-02-26T14:45:38;9.60;99.90
7658;DHT22;8462;53.156;8.220;2024-02-26T14:48:06;9.50;99.90
7658;DHT22;8462;53.156;8.220;2024-02-26T14:50:38;9.60;99.90
7658;DHT22;8462;53.156;8.220;2024-02-26T14:53:09;9.60;99.90
7658;DHT22;8462;53.156;8.220;2024-02-26T14:55:41;9.50;99.90
7658;DHT22;8462;53.156;8.220;2024-02-26T14:58:09;9.50;99.90
7658;DHT22;8462;53.156;8.220;2024-02-26T15:00:38;9.50;99.90
7658;DHT22;8462;53.156;8.220;2024-02-26T15:03:06;9.50;99.90
7658;DHT22;8462;53.156;8.220;2024-02-26T15:05:34;9.40;99.90
7658;DHT22;8462;53.156;8.220;2024-02-26T15:08:04;9.50;99.90
7658;DHT22;8462;53.156;8.220;2024-02-26T15:10:36;9.50;99.90
7658;DHT22;8462;53.156;8.220;2024-02-26T15:13:04;9.40;99.90
7658;DHT22;8462;53.156;8.220;2024-02-26T15:15:34;9.40;99.90
7658;DHT22;8462;53.156;8.220;2024-02-26T15:18:04;9.40;99.90
7658;DHT22;8462;53.156;8.220;2024-02-26T15:20:32;9.40;99.90
7658;DHT22;8462;53.156;8.220;2024-02-26T15:23:00;9.40;99.90
7658;DHT22;8462;53.156;8.220;2024-02-26T15:25:28;9.30;99.90
7658;DHT22;8462;53.156;8.220;2024-02-26T15:27:57;9.30;99.90
7658;DHT22;8462;53.156;8.220;2024-02-26T15:30:25;9.30;99.90
7658;DHT22;8462;53.156;8.220;2024-02-26T15:33:00;9.20;99.90
7658;DHT22;8462;53.156;8.220;2024-02-26T15:35:31;9.20;99.90
7658;DHT22;8462;53.156;8.220;2024-02-26T15:38:01;9.10;99.90
7658;DHT22;8462;53.156;8.220;2024-02-26T15:40:28;9.10;99.90
7658;DHT22;8462;53.156;8.220;2024-02-26T15:42:57;9.00;99.90
7658;DHT22;8462;53.156;8.220;2024-02-26T15:45:25;9.10;99.90
7658;DHT22;8462;53.156;8.220;2024-02-26T15:47:55;9.00;99.90
7658;DHT22;8462;53.156;8.220;2024-02-26T15:50:23;9.10;99.90
7658;DHT22;8462;53.156;8.220;2024-02-26T15:52:50;9.10;99.90
7658;DHT22;8462;53.156;8.220;2024-02-26T15:55:23;9.10;99.90
7658;DHT22;8462;53.156;8.220;2024-02-26T15:57:52;9.10;99.90
7658;DHT22;8462;53.156;8.220;2024-02-26T16:00:21;9.10;99.90
7658;DHT22;8462;53.156;8.220;2024-02-26T16:02:49;9.00;99.90
7658;DHT22;8462;53.156;8.220;2024-02-26T16:05:23;9.00;99.90
7658;DHT22;8462;53.156;8.220;2024-02-26T16:07:55;8.90;99.90
7658;DHT22;8462;53.156;8.220;2024-02-26T16:10:27;8.80;99.90
7658;DHT22;8462;53.156;8.220;2024-02-26T16:13:01;8.80;99.90
7658;DHT22;8462;53.156;8.220;2024-02-26T16:15:34;8.70;99.90
7658;DHT22;8462;53.156;8.220;2024-02-26T16:18:05;8.70;99.90
7658;DHT22;8462;53.156;8.220;2024-02-26T16:20:34;8.60;99.90
7658;DHT22;8462;53.156;8.220;2024-02-26T16:23:04;8.60;99.90
7658;DHT22;8462;53.156;8.220;2024-02-26T16:25:34;8.60;99.90
7658;DHT22;8462;53.156;8.220;2024-02-26T16:28:04;8.50;99.90
7658;DHT22;8462;53.156;8.220;2024-02-26T16:30:34;8.50;99.90
7658;DHT22;8462;53.156;8.220;2024-02-26T16:33:02;8.40;99.90